Time;durP1;ratioP1;P1;durP2;ratioP2;P2;SDS_P1;SDS_P2;PMS_P1;PMS_P2;Temp;Humidity;BMP_temperature;BMP_pressure;BME280_temperature;BME280_humidity;BME280_pressure;Samples;Min_cycle;Max_cycle;Signal;HPM_P1;HPM_P2
2021/07/13 00:00:32;;;;;;;10.20;6.82;;;19.30;99.90;;;;;;5064626;28;20076;-78
2021/07/13 00:02:59;;;;;;;9.38;6.82;;;19.20;99.90;;;;;;5060621;28;20109;-77
2021/07/13 00:05:25;;;;;;;8.73;5.95;;;19.20;99.90;;;;;;5066628;28;20042;-78
2021/07/13 00:07:51;;;;;;;12.23;7.13;;;19.20;99.90;;;;;;5062560;28;20537;-78
2021/07/13 00:10:23;;;;;;;10.73;6.50;;;19.20;99.90;;;;;;5055154;28;20107;-79
2021/07/13 00:12:50;;;;;;;11.05;6.80;;;19.20;99.90;;;;;;5054712;28;20021;-78
2021/07/13 00:15:30;;;;;;;9.32;6.20;;;19.20;99.90;;;;;;5054066;28;20319;-77
2021/07/13 00:17:56;;;;;;;;;;;19.20;99.90;;;;;;5059356;28;20104;-76
2021/07/13 00:20:23;;;;;;;8.40;6.43;;;19.10;99.90;;;;;;5062862;28;19939;-77
2021/07/13 00:22:49;;;;;;;8.43;6.07;;;19.10;99.90;;;;;;5056301;28;20074;-78
2021/07/13 00:25:16;;;;;;;9.90;5.80;;;19.00;99.90;;;;;;5051169;28;20032;-79
2021/07/13 00:27:43;;;;;;;9.48;6.15;;;19.00;99.90;;;;;;5056135;28;20550;-78
2021/07/13 00:30:11;;;;;;;11.25;6.82;;;19.20;99.90;;;;;;5058307;28;20490;-77
2021/07/13 00:32:37;;;;;;;8.60;6.50;;;19.10;99.90;;;;;;5056808;28;20079;-76
2021/07/13 00:35:03;;;;;;;9.95;6.28;;;19.10;99.90;;;;;;5055161;28;20308;-78
2021/07/13 00:37:29;;;;;;;8.73;5.90;;;19.10;99.90;;;;;;5069908;28;20060;-77
2021/07/13 00:39:54;;;;;;;8.52;6.57;;;19.00;99.90;;;;;;5050634;28;20091;-77
2021/07/13 00:42:20;;;;;;;9.77;6.70;;;19.20;99.90;;;;;;5048196;28;20028;-76
2021/07/13 00:44:46;;;;;;;9.32;5.93;;;19.00;99.90;;;;;;5046949;28;20021;-77
2021/07/13 00:47:17;;;;;;;12.65;7.13;;;18.90;99.90;;;;;;5048558;28;21794;-77
2021/07/13 00:49:45;;;;;;;9.73;6.75;;;19.00;99.90;;;;;;5045288;28;20772;-77
2021/07/13 00:52:10;;;;;;;9.10;6.65;;;18.90;99.90;;;;;;5042477;28;20020;-75
2021/07/13 00:54:37;;;;;;;14.10;7.22;;;18.90;99.90;;;;;;5046333;28;20130;-77
2021/07/13 00:57:10;;;;;;;11.10;6.45;;;19.00;99.90;;;;;;5053706;28;20029;-78
2021/07/13 00:59:37;;;;;;;10.77;6.95;;;18.90;99.90;;;;;;5051814;28;20040;-77
2021/07/13 01:02:04;;;;;;;10.65;6.18;;;18.90;99.90;;;;;;5061112;28;20482;-77
2021/07/13 01:04:30;;;;;;;9.60;6.80;;;18.90;99.90;;;;;;5048235;28;20029;-78
2021/07/13 01:07:05;;;;;;;8.90;6.57;;;18.90;99.90;;;;;;5035032;28;20394;-77
2021/07/13 01:09:45;;;;;;;10.43;7.45;;;18.90;99.90;;;;;;5050142;28;20582;-77
2021/07/13 01:12:42;;;;;;;11.07;6.50;;;18.90;99.90;;;;;;5040690;28;20032;-80
2021/07/13 01:15:10;;;;;;;9.70;6.85;;;18.90;99.90;;;;;;5042955;28;22845;-79
2021/07/13 01:18:00;;;;;;;10.65;6.45;;;18.90;99.90;;;;;;5044667;28;20086;-78
2021/07/13 01:20:41;;;;;;;;;;;18.90;99.90;;;;;;5042386;28;20137;-78
2021/07/13 01:23:36;;;;;;;9.38;6.70;;;19.10;99.90;;;;;;5047486;28;19924;-77
2021/07/13 01:26:26;;;;;;;9.88;6.82;;;18.70;99.90;;;;;;5041596;28;20038;-78
2021/07/13 01:29:00;;;;;;;;;;;18.90;99.90;;;;;;5044884;28;20033;-79
2021/07/13 01:31:27;;;;;;;9.13;6.50;;;18.90;99.90;;;;;;5051619;28;19912;-78
2021/07/13 01:34:03;;;;;;;7.82;5.70;;;18.80;99.90;;;;;;5050689;28;20360;-76
2021/07/13 01:36:33;;;;;;;9.18;6.70;;;18.90;99.90;;;;;;5061480;28;20036;-79
2021/07/13 01:38:59;;;;;;;;;;;18.90;99.90;;;;;;5049956;28;20032;-79
2021/07/13 01:41:27;;;;;;;12.63;7.60;;;18.90;99.90;;;;;;5036873;28;21903;-79
2021/07/13 01:43:55;;;;;;;11.95;6.90;;;20.70;99.90;;;;;;5037634;28;20213;-79
2021/07/13 01:46:23;;;;;;;10.25;7.07;;;18.90;99.90;;;;;;5045586;28;20115;-78
2021/07/13 01:48:54;;;;;;;10.50;6.57;;;18.80;99.90;;;;;;5050018;28;20044;-78
2021/07/13 01:51:21;;;;;;;10.27;7.05;;;18.80;99.90;;;;;;5037963;28;20063;-78
2021/07/13 01:53:49;;;;;;;18.52;7.38;;;18.80;99.90;;;;;;5045361;28;20451;-79
2021/07/13 01:56:17;;;;;;;9.70;6.40;;;18.80;99.90;;;;;;5051361;28;20045;-78
2021/07/13 01:58:44;;;;;;;9.23;6.18;;;18.80;99.90;;;;;;5034038;28;20049;-79
2021/07/13 02:01:22;;;;;;;8.70;6.07;;;18.80;99.90;;;;;;5046984;28;20035;-78
2021/07/13 02:03:54;;;;;;;11.00;6.80;;;18.70;99.90;;;;;;5050335;28;20271;-78
2021/07/13 02:06:23;;;;;;;8.82;6.40;;;18.70;99.90;;;;;;5045718;28;20713;-80
2021/07/13 02:08:51;;;;;;;8.03;5.90;;;18.70;99.90;;;;;;5049697;28;20017;-77
2021/07/13 02:11:17;;;;;;;8.68;6.18;;;18.80;99.90;;;;;;5047007;28;20040;-78
2021/07/13 02:13:44;;;;;;;8.70;5.85;;;18.70;99.90;;;;;;5051238;28;20027;-78
2021/07/13 02:16:10;;;;;;;10.00;6.40;;;18.70;99.90;;;;;;5053137;28;20039;-78
2021/07/13 02:18:35;;;;;;;8.68;6.43;;;18.70;99.90;;;;;;5058694;28;20037;-78
2021/07/13 02:21:02;;;;;;;9.43;6.70;;;18.70;99.90;;;;;;5046706;28;20048;-78
2021/07/13 02:23:28;;;;;;;10.38;6.90;;;18.60;99.90;;;;;;5048528;28;20021;-78
2021/07/13 02:25:57;;;;;;;11.75;7.43;;;18.70;99.90;;;;;;5045435;28;20371;-78
2021/07/13 02:28:32;;;;;;;13.13;6.80;;;18.70;99.90;;;;;;5047139;28;20491;-79
2021/07/13 02:31:02;;;;;;;11.80;6.90;;;18.70;99.90;;;;;;5045525;28;20036;-76
2021/07/13 02:33:31;;;;;;;;;;;18.70;99.90;;;;;;5047086;28;20056;-78
2021/07/13 02:36:06;;;;;;;10.32;6.82;;;18.70;99.90;;;;;;5049811;28;19920;-78
2021/07/13 02:38:32;;;;;;;8.57;6.63;;;18.60;99.90;;;;;;5052246;28;20127;-79
2021/07/13 02:40:59;;;;;;;10.65;6.90;;;18.60;99.90;;;;;;5060832;28;20044;-77
2021/07/13 02:43:25;;;;;;;8.73;6.55;;;18.60;99.90;;;;;;5047982;28;20029;-79
2021/07/13 02:45:53;;;;;;;10.95;6.40;;;18.70;99.90;;;;;;5048923;28;20045;-78
2021/07/13 02:48:20;;;;;;;8.48;5.93;;;18.60;99.90;;;;;;5045326;28;20028;-79
2021/07/13 02:50:47;;;;;;;8.30;5.22;;;18.60;99.90;;;;;;5054023;28;20307;-78
2021/07/13 02:53:13;;;;;;;8.27;6.50;;;18.50;99.90;;;;;;5042470;28;20383;-77
2021/07/13 02:55:43;;;;;;;12.52;5.90;;;18.50;99.90;;;;;;5050843;28;20025;-76
2021/07/13 02:58:09;;;;;;;8.18;5.88;;;18.50;99.90;;;;;;5042481;28;20039;-77
2021/07/13 03:00:36;;;;;;;7.70;5.70;;;18.50;99.90;;;;;;5043817;28;20041;-79
2021/07/13 03:03:02;;;;;;;8.73;6.43;;;18.60;99.90;;;;;;5044011;28;20047;-77
2021/07/13 03:05:29;;;;;;;7.80;5.63;;;18.70;99.90;;;;;;5057260;28;20036;-78
2021/07/13 03:07:55;;;;;;;9.30;5.65;;;18.50;99.90;;;;;;5068629;28;20029;-77
2021/07/13 03:10:26;;;;;;;9.02;6.15;;;18.50;99.90;;;;;;5066306;28;20098;-77
2021/07/13 03:12:53;;;;;;;6.75;5.72;;;18.50;99.90;;;;;;5047154;28;20950;-78
2021/07/13 03:15:21;;;;;;;7.22;5.30;;;18.50;99.90;;;;;;5040914;28;20690;-77
2021/07/13 03:17:47;;;;;;;6.97;5.70;;;18.50;99.90;;;;;;5044462;28;20024;-77
2021/07/13 03:20:13;;;;;;;7.25;5.45;;;18.50;99.90;;;;;;5048897;28;20182;-78
2021/07/13 03:22:42;;;;;;;6.68;5.32;;;18.80;99.90;;;;;;5042037;28;20488;-82
2021/07/13 03:25:11;;;;;;;8.77;5.85;;;18.40;99.90;;;;;;5042758;28;20029;-78
2021/07/13 03:27:37;;;;;;;6.23;5.20;;;18.40;99.90;;;;;;5042318;28;20031;-77
2021/07/13 03:30:05;;;;;;;7.97;6.35;;;18.40;99.90;;;;;;5042397;28;20287;-79
2021/07/13 03:32:33;;;;;;;9.23;5.78;;;18.40;99.90;;;;;;5044324;28;20094;-77
2021/07/13 03:35:00;;;;;;;8.80;5.97;;;18.30;99.90;;;;;;5045700;28;20103;-78
2021/07/13 03:37:26;;;;;;;9.18;5.30;;;18.40;99.90;;;;;;5038527;28;20626;-78
2021/07/13 03:39:52;;;;;;;6.97;5.20;;;18.30;99.90;;;;;;5044222;28;21942;-79
2021/07/13 03:42:19;;;;;;;8.05;5.88;;;18.30;99.90;;;;;;5044743;28;20032;-78
2021/07/13 03:44:44;;;;;;;8.55;5.82;;;18.30;99.90;;;;;;5046485;28;20111;-79
2021/07/13 03:47:15;;;;;;;8.77;5.63;;;18.30;99.90;;;;;;5045020;28;20547;-76
2021/07/13 03:49:43;;;;;;;8.13;5.55;;;18.30;99.90;;;;;;5038260;28;20379;-76
2021/07/13 03:52:09;;;;;;;8.05;5.50;;;18.70;99.90;;;;;;5060194;28;20025;-77
2021/07/13 03:54:35;;;;;;;8.32;5.57;;;18.30;99.90;;;;;;5064141;28;20032;-78
2021/07/13 03:57:02;;;;;;;8.70;5.50;;;18.20;99.90;;;;;;5042926;28;20032;-78
2021/07/13 03:59:28;;;;;;;8.63;5.82;;;18.20;99.90;;;;;;5039138;28;20120;-78
2021/07/13 04:01:55;;;;;;;8.18;6.07;;;18.10;99.90;;;;;;5042952;28;20024;-77
2021/07/13 04:04:21;;;;;;;8.60;5.70;;;18.20;99.90;;;;;;5049433;28;20056;-77
2021/07/13 04:06:47;;;;;;;9.60;5.97;;;;;;;;;;5055703;28;20136;-79
2021/07/13 04:09:12;;;;;;;7.50;5.32;;;18.20;99.90;;;;;;5049092;28;20435;-77
2021/07/13 04:11:38;;;;;;;8.30;5.40;;;18.20;99.90;;;;;;5049456;28;20370;-78
2021/07/13 04:14:04;;;;;;;9.60;5.68;;;18.30;99.90;;;;;;5047545;28;20518;-78
2021/07/13 04:16:30;;;;;;;7.40;5.40;;;18.20;99.90;;;;;;5054767;28;20409;-77
2021/07/13 04:18:56;;;;;;;7.43;5.45;;;18.20;99.90;;;;;;5050839;28;20017;-81
2021/07/13 04:21:22;;;;;;;7.07;5.32;;;18.20;99.90;;;;;;5049316;28;20627;-78
2021/07/13 04:23:48;;;;;;;7.40;5.18;;;18.20;99.90;;;;;;5047076;28;20486;-78
2021/07/13 04:26:13;;;;;;;6.88;4.85;;;18.30;99.90;;;;;;5040351;28;20178;-77
2021/07/13 04:28:39;;;;;;;6.78;4.82;;;18.30;99.90;;;;;;5048115;28;20310;-77
2021/07/13 04:31:04;;;;;;;7.40;4.93;;;19.00;99.90;;;;;;5060161;28;20040;-78
2021/07/13 04:33:30;;;;;;;7.68;5.13;;;18.30;99.90;;;;;;5057227;28;20016;-77
2021/07/13 04:35:57;;;;;;;8.75;5.72;;;18.30;99.90;;;;;;5052058;28;20029;-77
2021/07/13 04:38:23;;;;;;;6.95;5.25;;;;;;;;;;5060647;28;20021;-77
2021/07/13 04:40:49;;;;;;;8.50;5.55;;;18.30;99.90;;;;;;5060900;28;20047;-77
2021/07/13 04:43:14;;;;;;;9.57;5.28;;;18.50;99.90;;;;;;5060664;28;20474;-78
2021/07/13 04:45:40;;;;;;;7.43;4.65;;;18.20;99.90;;;;;;5056142;28;20032;-77
2021/07/13 04:48:06;;;;;;;6.32;4.20;;;18.30;99.90;;;;;;5056055;28;20047;-76
2021/07/13 04:50:32;;;;;;;5.88;4.70;;;18.20;99.90;;;;;;5054372;28;20064;-77
2021/07/13 04:52:57;;;;;;;9.02;4.90;;;18.20;99.90;;;;;;5054437;28;20033;-78
2021/07/13 04:55:23;;;;;;;7.65;4.80;;;18.20;99.90;;;;;;5056462;28;20107;-77
2021/07/13 04:57:48;;;;;;;11.10;5.28;;;18.20;99.90;;;;;;5055203;28;20505;-76
2021/07/13 05:00:15;;;;;;;9.95;5.00;;;18.40;99.90;;;;;;5052545;28;20127;-76
2021/07/13 05:02:41;;;;;;;6.82;5.05;;;18.20;99.90;;;;;;5054135;28;20031;-76
2021/07/13 05:05:11;;;;;;;7.53;4.47;;;18.20;99.90;;;;;;5052268;28;20397;-77
2021/07/13 05:07:47;;;;;;;6.13;4.45;;;18.20;99.90;;;;;;5051646;28;20446;-75
2021/07/13 05:10:14;;;;;;;7.50;4.60;;;18.20;99.90;;;;;;5055130;28;20032;-78
2021/07/13 05:12:40;;;;;;;6.13;4.15;;;18.20;99.90;;;;;;5047324;28;20095;-78
2021/07/13 05:15:07;;;;;;;6.93;3.85;;;18.30;99.90;;;;;;5050411;28;20032;-77
2021/07/13 05:17:33;;;;;;;6.93;4.25;;;18.30;99.90;;;;;;5061150;28;20047;-79
2021/07/13 05:19:59;;;;;;;7.45;4.38;;;18.30;99.90;;;;;;5054384;28;20037;-78
2021/07/13 05:22:24;;;;;;;4.90;3.88;;;18.80;99.90;;;;;;5048198;28;20043;-77
2021/07/13 05:24:50;;;;;;;12.43;7.22;;;18.30;99.90;;;;;;5052858;28;20036;-76
2021/07/13 05:27:17;;;;;;;6.43;4.20;;;19.50;99.90;;;;;;5046694;28;20044;-77
2021/07/13 05:29:42;;;;;;;5.18;3.67;;;18.40;99.90;;;;;;5048224;28;20093;-78
2021/07/13 05:32:08;;;;;;;6.00;3.58;;;18.40;99.90;;;;;;5047504;28;20151;-78
2021/07/13 05:34:34;;;;;;;4.00;2.85;;;18.50;99.90;;;;;;5049974;28;20044;-78
2021/07/13 05:36:59;;;;;;;6.88;4.35;;;18.50;99.90;;;;;;5059451;28;20031;-79
2021/07/13 05:39:25;;;;;;;7.97;3.47;;;18.60;99.90;;;;;;5053913;28;20462;-78
2021/07/13 05:41:51;;;;;;;4.43;3.30;;;19.30;99.90;;;;;;5051519;28;20040;-77
2021/07/13 05:44:17;;;;;;;7.47;3.50;;;18.60;99.90;;;;;;5046762;28;20135;-77
2021/07/13 05:46:42;;;;;;;6.70;3.20;;;18.50;99.90;;;;;;5049584;28;20017;-77
2021/07/13 05:49:08;;;;;;;4.65;3.35;;;18.50;99.90;;;;;;5050262;28;20024;-77
2021/07/13 05:51:34;;;;;;;6.30;3.47;;;18.50;99.90;;;;;;5048984;28;20032;-77
2021/07/13 05:54:02;;;;;;;5.38;3.60;;;18.50;99.90;;;;;;5055477;28;20296;-77
2021/07/13 05:56:28;;;;;;;7.75;3.50;;;18.40;99.90;;;;;;5060642;28;20103;-77
2021/07/13 05:58:53;;;;;;;6.05;2.80;;;18.50;99.90;;;;;;5056596;28;20021;-77
2021/07/13 06:01:19;;;;;;;4.13;2.95;;;18.60;99.90;;;;;;5048177;28;20029;-77
2021/07/13 06:03:45;;;;;;;5.60;3.42;;;18.50;99.90;;;;;;5051793;28;20518;-78
2021/07/13 06:06:10;;;;;;;5.28;3.67;;;18.50;99.90;;;;;;5053301;28;20032;-79
2021/07/13 06:08:36;;;;;;;5.15;2.90;;;18.50;99.90;;;;;;5056904;28;20105;-76
2021/07/13 06:11:01;;;;;;;5.43;3.10;;;18.40;99.90;;;;;;5056854;28;20035;-78
2021/07/13 06:13:27;;;;;;;6.80;3.60;;;18.40;99.90;;;;;;5056358;28;20028;-77
2021/07/13 06:15:53;;;;;;;4.97;2.75;;;18.40;99.90;;;;;;5053190;28;20505;-79
2021/07/13 06:18:19;;;;;;;5.72;2.92;;;18.30;99.90;;;;;;5057298;28;20100;-79
2021/07/13 06:20:45;;;;;;;7.22;2.50;;;18.40;99.90;;;;;;5052031;28;20033;-80
2021/07/13 06:23:11;;;;;;;4.97;2.80;;;18.30;99.90;;;;;;5061939;28;20031;-78
2021/07/13 06:25:37;;;;;;;7.10;2.75;;;;;;;;;;5061271;28;20025;-79
2021/07/13 06:28:03;;;;;;;6.43;3.17;;;18.30;99.90;;;;;;5059625;28;20033;-78
2021/07/13 06:30:29;;;;;;;3.47;2.47;;;;;;;;;;5056138;28;20609;-80
2021/07/13 06:32:55;;;;;;;4.60;2.42;;;;;;;;;;5056425;28;20060;-76
2021/07/13 06:35:21;;;;;;;3.00;2.00;;;18.40;99.90;;;;;;5053827;28;20501;-78
2021/07/13 06:37:49;;;;;;;4.40;2.22;;;18.20;99.90;;;;;;5059428;28;20021;-78
2021/07/13 06:40:16;;;;;;;3.45;2.50;;;18.20;99.90;;;;;;5057237;28;20468;-75
2021/07/13 06:42:42;;;;;;;4.53;2.53;;;18.20;99.90;;;;;;5056597;28;20029;-77
2021/07/13 06:45:08;;;;;;;3.47;2.30;;;18.20;99.90;;;;;;5054076;28;20025;-78
2021/07/13 06:47:34;;;;;;;3.15;2.00;;;18.20;99.90;;;;;;5057163;28;20060;-78
2021/07/13 06:50:00;;;;;;;4.10;2.40;;;18.20;99.90;;;;;;5055340;28;20036;-78
2021/07/13 06:52:26;;;;;;;3.70;2.33;;;18.20;99.90;;;;;;5057393;28;20056;-78
2021/07/13 06:54:51;;;;;;;4.13;2.42;;;18.20;99.90;;;;;;5060458;28;20029;-76
2021/07/13 06:57:17;;;;;;;5.53;2.60;;;18.20;99.90;;;;;;5061243;28;20086;-77
2021/07/13 06:59:44;;;;;;;4.32;2.50;;;18.20;99.90;;;;;;5063515;28;20048;-76
2021/07/13 07:02:09;;;;;;;3.28;2.00;;;18.20;99.90;;;;;;5060205;28;20041;-76
2021/07/13 07:04:36;;;;;;;4.18;1.98;;;18.30;99.90;;;;;;5058059;28;20020;-76
2021/07/13 07:07:02;;;;;;;5.28;3.22;;;18.20;99.90;;;;;;5056864;28;20065;-77
2021/07/13 07:09:27;;;;;;;2.58;1.90;;;18.30;99.90;;;;;;5055101;28;20119;-77
2021/07/13 07:11:53;;;;;;;3.50;2.05;;;18.20;99.90;;;;;;5057278;28;20097;-76
2021/07/13 07:14:19;;;;;;;3.55;2.22;;;18.20;99.90;;;;;;5071502;28;20021;-78
2021/07/13 07:16:44;;;;;;;6.05;2.33;;;18.20;99.90;;;;;;5057897;28;20028;-79
2021/07/13 07:19:10;;;;;;;2.95;1.95;;;18.10;99.90;;;;;;5055662;28;20036;-77
2021/07/13 07:21:36;;;;;;;4.20;2.38;;;18.10;99.90;;;;;;5054671;28;20486;-77
2021/07/13 07:24:02;;;;;;;3.47;1.92;;;18.10;99.90;;;;;;5056108;28;20045;-77
2021/07/13 07:26:27;;;;;;;2.80;2.00;;;18.10;99.90;;;;;;5055573;28;20020;-78
2021/07/13 07:28:54;;;;;;;3.10;2.15;;;;;;;;;;5057459;28;20090;-77
2021/07/13 07:31:21;;;;;;;3.15;2.00;;;18.10;99.90;;;;;;5056883;28;20516;-78
2021/07/13 07:33:47;;;;;;;3.50;2.10;;;;;;;;;;5053024;28;20071;-77
2021/07/13 07:36:13;;;;;;;3.67;1.85;;;;;;;;;;5055315;28;20064;-77
2021/07/13 07:38:40;;;;;;;3.28;1.80;;;18.10;99.90;;;;;;5055909;28;20025;-78
2021/07/13 07:41:06;;;;;;;2.25;1.65;;;;;;;;;;5058495;28;20029;-77
2021/07/13 07:43:31;;;;;;;4.70;2.20;;;18.10;99.90;;;;;;5057543;28;20490;-78
2021/07/13 07:45:57;;;;;;;2.55;1.73;;;18.10;99.90;;;;;;5054777;28;20028;-79
2021/07/13 07:48:23;;;;;;;3.95;1.75;;;20.50;99.90;;;;;;5057768;28;20024;-76
2021/07/13 07:50:48;;;;;;;2.90;1.90;;;18.00;99.90;;;;;;5060731;28;20024;-75
2021/07/13 07:53:14;;;;;;;3.25;1.98;;;18.00;99.90;;;;;;5052740;28;20048;-77
2021/07/13 07:55:39;;;;;;;4.05;2.38;;;18.00;99.90;;;;;;5055419;28;20036;-78
2021/07/13 07:58:05;;;;;;;2.90;1.98;;;18.00;99.90;;;;;;5059746;28;20411;-77
2021/07/13 08:00:31;;;;;;;3.13;1.85;;;17.90;99.90;;;;;;5071896;28;20040;-79
2021/07/13 08:02:56;;;;;;;3.22;2.20;;;18.10;99.90;;;;;;5056294;28;20029;-77
2021/07/13 08:05:26;;;;;;;2.83;1.52;;;;;;;;;;5053884;28;20108;-78
2021/07/13 08:07:52;;;;;;;3.00;2.00;;;;;;;;;;5054266;28;20128;-78
2021/07/13 08:10:18;;;;;;;2.70;1.70;;;;;;;;;;5058768;28;20331;-77
2021/07/13 08:12:44;;;;;;;3.00;1.80;;;18.10;99.90;;;;;;5061349;28;20029;-77
2021/07/13 08:15:12;;;;;;;3.15;1.90;;;18.00;99.90;;;;;;5058024;28;20094;-77
2021/07/13 08:17:38;;;;;;;2.70;1.55;;;17.90;99.90;;;;;;5060626;28;20060;-77
2021/07/13 08:20:06;;;;;;;2.42;1.52;;;17.90;99.90;;;;;;5051473;28;20699;-79
2021/07/13 08:22:33;;;;;;;2.97;0.95;;;;;;;;;;5055398;28;20025;-77
2021/07/13 08:24:59;;;;;;;1.58;1.17;;;18.00;99.90;;;;;;5053718;28;20386;-77
2021/07/13 08:27:25;;;;;;;2.10;1.20;;;17.90;99.90;;;;;;5058533;28;20029;-78
2021/07/13 08:29:51;;;;;;;2.00;1.38;;;18.00;99.90;;;;;;5056344;28;20025;-78
2021/07/13 08:32:16;;;;;;;1.52;1.08;;;17.80;99.90;;;;;;5054990;28;20032;-77
2021/07/13 08:34:42;;;;;;;1.70;0.82;;;17.80;99.90;;;;;;5057218;28;20025;-78
2021/07/13 08:37:08;;;;;;;1.63;1.00;;;17.70;99.90;;;;;;5063799;28;20398;-78
2021/07/13 08:39:33;;;;;;;1.35;1.05;;;17.80;99.90;;;;;;5063979;28;20067;-79
2021/07/13 08:42:02;;;;;;;2.63;1.15;;;17.70;99.90;;;;;;5055912;28;20025;-77
2021/07/13 08:44:29;;;;;;;1.42;0.93;;;17.50;99.90;;;;;;5078417;28;20031;-77
2021/07/13 08:46:54;;;;;;;1.13;0.65;;;17.60;99.90;;;;;;5059459;28;22881;-78
2021/07/13 08:49:21;;;;;;;3.28;0.90;;;17.60;99.90;;;;;;5065718;28;20142;-79
2021/07/13 08:51:47;;;;;;;1.13;0.90;;;17.70;99.90;;;;;;5062119;28;20077;-76
2021/07/13 08:54:13;;;;;;;1.20;0.80;;;17.80;99.90;;;;;;5062279;28;20040;-77
2021/07/13 08:56:39;;;;;;;2.53;0.90;;;18.50;99.90;;;;;;5074584;28;20493;-77
2021/07/13 08:59:05;;;;;;;0.75;0.70;;;17.70;99.90;;;;;;5074259;28;20047;-78
2021/07/13 09:01:32;;;;;;;1.42;1.00;;;;;;;;;;5072511;28;20520;-77
2021/07/13 09:04:06;;;;;;;1.35;0.88;;;17.60;99.90;;;;;;5068644;28;20029;-79
2021/07/13 09:06:55;;;;;;;1.33;0.90;;;17.70;99.90;;;;;;5072023;28;20058;-78
2021/07/13 09:09:24;;;;;;;1.50;0.80;;;;;;;;;;5068833;28;20028;-78
2021/07/13 09:12:16;;;;;;;1.25;0.90;;;17.70;99.90;;;;;;5068185;28;20032;-78
2021/07/13 09:14:58;;;;;;;0.98;0.80;;;17.70;99.90;;;;;;5065335;28;20025;-78
2021/07/13 09:17:39;;;;;;;2.22;1.30;;;;;;;;;;5062095;28;20032;-78
2021/07/13 09:20:25;;;;;;;1.33;0.80;;;17.70;99.90;;;;;;5067323;28;20064;-78
2021/07/13 09:22:54;;;;;;;1.27;1.00;;;;;;;;;;5062496;28;20033;-77
2021/07/13 09:25:28;;;;;;;1.55;0.90;;;17.80;99.90;;;;;;5065720;28;20050;-78
2021/07/13 09:28:14;;;;;;;2.60;1.27;;;17.80;99.90;;;;;;5064193;28;20024;-75
2021/07/13 09:30:47;;;;;;;1.27;0.98;;;17.70;99.90;;;;;;5063990;28;20025;-77
2021/07/13 09:33:23;;;;;;;2.38;1.40;;;17.70;99.90;;;;;;5060341;28;20029;-79
2021/07/13 09:36:14;;;;;;;2.28;1.30;;;17.60;99.90;;;;;;5058626;28;20025;-79
2021/07/13 09:38:46;;;;;;;1.33;1.02;;;17.60;99.90;;;;;;5067597;28;20098;-78
2021/07/13 09:41:19;;;;;;;2.55;1.00;;;17.60;99.90;;;;;;5063308;28;20029;-79
2021/07/13 09:43:47;;;;;;;1.35;0.82;;;17.60;99.90;;;;;;5065611;28;20024;-79
2021/07/13 09:46:39;;;;;;;2.75;0.90;;;17.70;99.90;;;;;;5070116;28;20028;-79
2021/07/13 09:49:18;;;;;;;2.25;1.10;;;17.70;99.90;;;;;;5069520;28;20025;-79
2021/07/13 09:51:47;;;;;;;1.85;1.27;;;17.60;99.90;;;;;;5064937;28;20029;-78
2021/07/13 09:54:32;;;;;;;1.73;1.23;;;17.60;99.90;;;;;;5062429;28;20107;-77
2021/07/13 09:56:59;;;;;;;1.88;1.15;;;17.50;99.90;;;;;;5069090;28;20028;-78
2021/07/13 09:59:25;;;;;;;3.00;1.70;;;;;;;;;;5074142;28;20167;-78
2021/07/13 10:01:52;;;;;;;2.53;1.38;;;;;;;;;;5072236;28;20391;-77
2021/07/13 10:04:18;;;;;;;1.70;1.20;;;;;;;;;;5069584;28;20025;-78
2021/07/13 10:06:46;;;;;;;1.77;1.05;;;17.40;99.90;;;;;;5068898;28;20129;-76
2021/07/13 10:09:13;;;;;;;3.35;1.45;;;17.20;99.90;;;;;;5066620;28;20036;-78
2021/07/13 10:11:40;;;;;;;2.38;1.13;;;17.20;99.90;;;;;;5067140;28;20029;-79
2021/07/13 10:14:09;;;;;;;2.60;1.50;;;17.40;99.90;;;;;;5066807;28;20044;-79
2021/07/13 10:16:35;;;;;;;1.90;1.15;;;;;;;;;;5074074;28;20034;-78
2021/07/13 10:19:04;;;;;;;5.95;2.53;;;17.30;99.90;;;;;;5062048;28;20047;-79
2021/07/13 10:21:30;;;;;;;2.38;1.50;;;;;;;;;;5068845;28;20024;-78
2021/07/13 10:23:56;;;;;;;2.15;1.40;;;17.30;99.90;;;;;;5072843;28;20090;-78
2021/07/13 10:26:43;;;;;;;2.53;1.55;;;17.20;99.90;;;;;;5066969;28;20069;-79
2021/07/13 10:29:44;;;;;;;2.20;1.35;;;17.40;99.90;;;;;;5059964;28;20052;-78
2021/07/13 10:32:31;;;;;;;2.55;1.33;;;17.20;99.90;;;;;;5043026;28;20123;-78
2021/07/13 10:35:23;;;;;;;2.08;1.15;;;17.20;99.90;;;;;;5058147;28;20040;-78
2021/07/13 10:37:58;;;;;;;2.45;1.30;;;18.10;99.90;;;;;;5062414;28;20028;-77
2021/07/13 10:40:27;;;;;;;2.35;1.45;;;17.00;99.90;;;;;;5060405;28;20116;-77
2021/07/13 10:42:53;;;;;;;1.75;1.25;;;17.10;99.90;;;;;;5059276;28;20356;-78
2021/07/13 10:45:29;;;;;;;2.53;1.48;;;17.10;99.90;;;;;;5059110;28;20021;-79
2021/07/13 10:48:20;;;;;;;1.85;1.25;;;17.20;99.90;;;;;;5060495;28;20033;-77
2021/07/13 10:51:03;;;;;;;2.05;1.15;;;17.20;99.90;;;;;;5065364;28;20044;-77
2021/07/13 10:53:30;;;;;;;2.35;1.23;;;17.20;99.90;;;;;;5066377;28;20036;-77
2021/07/13 10:55:58;;;;;;;3.80;1.42;;;17.20;99.90;;;;;;5065073;28;20051;-77
2021/07/13 10:58:34;;;;;;;2.38;0.98;;;17.20;99.90;;;;;;5063898;28;20070;-80
2021/07/13 11:01:14;;;;;;;1.30;1.00;;;17.10;99.90;;;;;;5070801;28;20071;-77
2021/07/13 11:03:39;;;;;;;1.13;1.00;;;17.10;99.90;;;;;;5066539;28;20029;-77
2021/07/13 11:06:12;;;;;;;2.58;0.90;;;17.10;99.90;;;;;;5069755;28;20545;-78
2021/07/13 11:08:40;;;;;;;2.85;0.93;;;17.20;99.90;;;;;;5072025;28;20032;-78
2021/07/13 11:11:10;;;;;;;2.13;1.08;;;17.10;99.90;;;;;;5071683;28;20032;-77
2021/07/13 11:13:37;;;;;;;1.95;1.08;;;17.20;99.90;;;;;;5068291;28;20032;-77
2021/07/13 11:16:03;;;;;;;2.03;1.10;;;17.10;99.90;;;;;;5067736;28;20035;-77
2021/07/13 11:18:34;;;;;;;1.65;0.80;;;17.20;99.90;;;;;;5069556;28;20036;-78
2021/07/13 11:21:14;;;;;;;;;;;17.20;99.90;;;;;;5071367;28;20039;-76
2021/07/13 11:23:41;;;;;;;2.45;1.00;;;17.30;99.90;;;;;;5059812;28;19919;-77
2021/07/13 11:26:10;;;;;;;1.17;0.90;;;17.30;99.90;;;;;;5062925;28;20033;-77
2021/07/13 11:28:37;;;;;;;0.80;0.80;;;18.90;99.90;;;;;;5070748;28;20033;-75
2021/07/13 11:31:04;;;;;;;0.98;0.82;;;17.30;99.90;;;;;;5063427;28;20032;-75
2021/07/13 11:33:29;;;;;;;1.45;1.00;;;17.90;99.90;;;;;;5051308;28;20037;-75
2021/07/13 11:35:57;;;;;;;1.65;1.08;;;17.40;99.90;;;;;;5061427;28;20029;-75
2021/07/13 11:38:32;;;;;;;1.83;1.00;;;17.50;99.90;;;;;;5063444;28;20016;-75
2021/07/13 11:41:12;;;;;;;2.47;0.80;;;17.50;99.90;;;;;;5074899;28;20450;-76
2021/07/13 11:43:38;;;;;;;2.15;1.02;;;17.40;99.90;;;;;;5069889;28;20066;-75
2021/07/13 11:46:18;;;;;;;1.98;1.00;;;17.40;99.90;;;;;;5061094;28;20032;-74
2021/07/13 11:49:03;;;;;;;1.88;1.08;;;17.40;99.90;;;;;;5069056;28;20334;-74
2021/07/13 11:51:40;;;;;;;1.70;1.10;;;17.40;99.90;;;;;;5059338;28;20017;-76
2021/07/13 11:54:14;;;;;;;1.60;1.02;;;17.50;99.90;;;;;;5060995;28;20059;-75
2021/07/13 11:56:48;;;;;;;2.05;1.10;;;17.50;99.90;;;;;;5056311;28;20021;-76
2021/07/13 11:59:14;;;;;;;1.67;1.02;;;17.60;99.90;;;;;;5059242;28;20041;-76
2021/07/13 12:01:40;;;;;;;1.10;0.95;;;17.60;99.90;;;;;;5060872;28;20062;-75
2021/07/13 12:04:09;;;;;;;1.42;0.98;;;17.70;99.90;;;;;;5064243;28;20025;-76
2021/07/13 12:06:36;;;;;;;1.20;1.08;;;17.80;99.90;;;;;;5066917;28;20039;-75
2021/07/13 12:09:14;;;;;;;1.63;1.08;;;18.20;99.90;;;;;;5058004;28;20025;-76
2021/07/13 12:11:46;;;;;;;1.63;0.80;;;17.80;99.90;;;;;;5067470;28;20028;-75
2021/07/13 12:14:16;;;;;;;0.80;0.80;;;17.90;99.90;;;;;;5064996;28;20032;-75
2021/07/13 12:16:43;;;;;;;3.20;1.10;;;17.90;99.90;;;;;;5078581;28;20390;-77
2021/07/13 12:19:14;;;;;;;1.23;0.90;;;17.90;99.90;;;;;;5066195;28;20035;-75
2021/07/13 12:21:43;;;;;;;1.05;0.90;;;17.90;99.90;;;;;;5064582;28;20064;-76
2021/07/13 12:24:16;;;;;;;1.65;1.00;;;18.00;99.90;;;;;;5057880;28;20044;-76
2021/07/13 12:26:46;;;;;;;0.95;0.88;;;18.20;99.90;;;;;;5054618;28;20491;-76
2021/07/13 12:29:13;;;;;;;1.08;0.85;;;18.20;99.90;;;;;;5059920;28;20493;-75
2021/07/13 12:31:46;;;;;;;1.38;0.93;;;18.30;99.90;;;;;;5054251;28;20379;-76
2021/07/13 12:34:24;;;;;;;1.80;1.13;;;18.30;99.90;;;;;;5061426;28;20104;-75
2021/07/13 12:37:01;;;;;;;1.50;1.17;;;18.20;99.90;;;;;;5062928;28;20024;-75
2021/07/13 12:39:27;;;;;;;1.23;0.90;;;18.20;99.90;;;;;;5065695;28;20020;-76
2021/07/13 12:42:06;;;;;;;2.33;1.15;;;18.00;99.90;;;;;;5063929;28;20478;-77
2021/07/13 12:44:34;;;;;;;2.00;1.20;;;18.00;99.90;;;;;;5062280;28;20232;-76
2021/07/13 12:47:13;;;;;;;1.63;1.13;;;18.20;99.90;;;;;;5061278;28;20024;-78
2021/07/13 12:49:38;;;;;;;1.30;0.95;;;18.10;99.90;;;;;;5056420;28;20051;-77
2021/07/13 12:52:11;;;;;;;2.00;1.33;;;18.10;99.90;;;;;;5049233;28;20044;-77
2021/07/13 12:54:57;;;;;;;2.17;1.15;;;18.10;99.90;;;;;;5059390;28;20029;-76
2021/07/13 12:57:30;;;;;;;1.25;0.90;;;18.10;99.90;;;;;;5071255;28;20031;-76
2021/07/13 13:00:06;;;;;;;1.70;1.17;;;18.10;99.90;;;;;;5067532;28;20025;-76
2021/07/13 13:02:32;;;;;;;1.88;1.20;;;18.00;99.90;;;;;;5061866;28;20033;-77
2021/07/13 13:04:58;;;;;;;2.20;1.13;;;18.10;99.90;;;;;;5057842;28;20035;-77